createdAt,value
2022-08-29T00:01:13.107Z,301.33
2022-08-29T00:03:40.701Z,330.77
2022-08-29T00:06:07.955Z,310.13
2022-08-29T00:08:35.246Z,302.88
2022-08-29T00:11:02.222Z,271.50
2022-08-29T00:13:29.698Z,318.02
2022-08-29T00:15:56.978Z,334.48
2022-08-29T00:18:23.883Z,340.88
2022-08-29T00:20:52.280Z,288.45
2022-08-29T00:23:19.839Z,315.05
2022-08-29T00:25:48.528Z,244.48
2022-08-29T00:28:15.945Z,279.67
2022-08-29T00:30:43.383Z,300.60
2022-08-29T00:33:10.665Z,333.02
2022-08-29T00:35:40.441Z,313.90
2022-08-29T00:38:09.577Z,278.15
2022-08-29T00:40:39.988Z,245.38
2022-08-29T00:43:08.267Z,258.10
2022-08-29T00:45:39.054Z,304.15
2022-08-29T00:48:11.847Z,233.52
2022-08-29T00:50:54.464Z,273.55
2022-08-29T00:53:34.989Z,271.85
2022-08-29T00:56:03.304Z,301.63
2022-08-29T00:58:40.391Z,229.40
2022-08-29T01:01:07.475Z,281.42
2022-08-29T01:03:36.455Z,284.03
2022-08-29T01:06:10.400Z,298.85
2022-08-29T01:08:37.155Z,266.52
2022-08-29T01:11:24.100Z,351.60
2022-08-29T01:13:52.201Z,332.95
2022-08-29T01:16:20.871Z,323.00
2022-08-29T01:18:51.340Z,333.30
2022-08-29T01:21:41.187Z,336.63
2022-08-29T01:24:50.456Z,308.33
2022-08-29T01:27:31.338Z,325.15
2022-08-29T01:29:58.237Z,288.45
2022-08-29T01:32:25.600Z,323.30
2022-08-29T01:34:53.326Z,340.40
2022-08-29T01:37:20.744Z,313.30
2022-08-29T01:39:47.974Z,262.63
2022-08-29T01:42:19.332Z,270.65
2022-08-29T01:44:56.123Z,245.70
2022-08-29T01:47:27.742Z,250.02
2022-08-29T01:49:55.253Z,238.45
2022-08-29T01:52:22.250Z,260.83
2022-08-29T01:54:49.543Z,274.27
2022-08-29T01:57:17.456Z,253.03
2022-08-29T01:59:45.264Z,265.50
2022-08-29T02:02:20.165Z,234.77
2022-08-29T02:04:49.952Z,271.70
2022-08-29T02:07:18.887Z,264.80
2022-08-29T02:09:46.680Z,260.30
2022-08-29T02:12:15.679Z,270.10
2022-08-29T02:14:43.104Z,275.83
2022-08-29T02:17:10.588Z,280.15
2022-08-29T02:19:38.810Z,278.10
2022-08-29T02:22:07.463Z,293.90
2022-08-29T02:24:35.208Z,273.13
2022-08-29T02:27:02.587Z,284.88
2022-08-29T02:29:30.805Z,271.60
2022-08-29T02:32:07.207Z,331.75
2022-08-29T02:34:36.959Z,346.98
2022-08-29T02:37:05.910Z,361.45
2022-08-29T02:39:33.319Z,364.02
2022-08-29T02:42:00.595Z,320.90
2022-08-29T02:44:27.438Z,379.70
2022-08-29T02:46:54.719Z,386.00
2022-08-29T02:49:21.822Z,372.63
2022-08-29T02:51:48.666Z,372.80
2022-08-29T02:54:16.513Z,390.25
2022-08-29T02:56:43.507Z,349.17
2022-08-29T02:59:11.501Z,347.83
2022-08-29T03:01:39.522Z,356.83
2022-08-29T03:04:07.195Z,344.48
2022-08-29T03:06:34.646Z,372.88
2022-08-29T03:09:01.873Z,274.02
2022-08-29T03:11:29.834Z,303.33
2022-08-29T03:13:58.257Z,312.83
2022-08-29T03:16:26.402Z,312.20
2022-08-29T03:18:53.898Z,304.73
2022-08-29T03:21:22.799Z,327.13
2022-08-29T03:23:51.545Z,324.25
2022-08-29T03:26:19.550Z,298.50
2022-08-29T03:28:46.928Z,328.13
2022-08-29T03:31:13.971Z,327.08
2022-08-29T03:33:41.779Z,323.45
2022-08-29T03:36:14.063Z,318.02
2022-08-29T03:38:43.506Z,350.70
2022-08-29T03:41:10.532Z,328.33
2022-08-29T03:43:37.512Z,291.85
2022-08-29T03:46:04.717Z,333.65
2022-08-29T03:48:33.642Z,302.95
2022-08-29T03:51:00.935Z,338.35
2022-08-29T03:53:28.243Z,321.02
2022-08-29T03:55:57.934Z,330.98
2022-08-29T03:58:25.035Z,281.07
2022-08-29T04:00:51.912Z,311.73
2022-08-29T04:03:20.068Z,300.33
2022-08-29T04:05:49.084Z,267.35
2022-08-29T04:08:21.008Z,327.57
2022-08-29T04:10:47.804Z,320.58
2022-08-29T04:13:15.205Z,307.70
2022-08-29T04:15:43.127Z,275.73
2022-08-29T04:18:11.383Z,317.83
2022-08-29T04:20:44.687Z,324.70
2022-08-29T04:23:15.215Z,241.68
2022-08-29T04:25:44.274Z,261.48
2022-08-29T04:28:14.106Z,245.98
2022-08-29T04:30:51.668Z,247.82
2022-08-29T04:33:25.205Z,249.48
2022-08-29T04:35:52.924Z,259.05
2022-08-29T04:38:20.291Z,266.60
2022-08-29T04:40:48.681Z,165.27
2022-08-29T04:43:16.023Z,227.32
2022-08-29T04:45:43.311Z,292.70
2022-08-29T04:48:10.777Z,315.02
2022-08-29T04:50:38.192Z,331.50
2022-08-29T04:53:05.035Z,308.53
2022-08-29T04:55:33.039Z,341.73
2022-08-29T04:58:01.408Z,321.38
2022-08-29T05:00:30.510Z,347.77
2022-08-29T05:02:58.349Z,348.75
2022-08-29T05:05:25.707Z,348.48
2022-08-29T05:07:52.607Z,326.40
2022-08-29T05:10:20.985Z,338.58
2022-08-29T05:12:48.508Z,313.98
2022-08-29T05:15:16.184Z,307.42
2022-08-29T05:17:43.493Z,305.95
2022-08-29T05:20:10.855Z,288.92
2022-08-29T05:22:38.838Z,288.77
2022-08-29T05:25:06.420Z,317.92
2022-08-29T05:27:33.770Z,328.98
2022-08-29T05:30:01.456Z,262.52
2022-08-29T05:32:28.441Z,219.85
2022-08-29T05:34:55.948Z,257.92
2022-08-29T05:37:23.341Z,254.82
2022-08-29T05:39:50.629Z,286.73
2022-08-29T05:42:19.914Z,270.08
2022-08-29T05:44:46.959Z,291.60
2022-08-29T05:47:16.000Z,289.90
2022-08-29T05:49:44.583Z,270.95
2022-08-29T05:52:13.266Z,293.80
2022-08-29T05:54:41.628Z,285.10
2022-08-29T05:57:10.190Z,257.73
2022-08-29T05:59:38.195Z,288.67
2022-08-29T06:02:08.047Z,283.77
2022-08-29T06:04:35.534Z,267.45
2022-08-29T06:07:05.305Z,271.70
2022-08-29T06:09:32.828Z,293.88
2022-08-29T06:11:59.948Z,283.05
2022-08-29T06:14:30.858Z,288.15
2022-08-29T06:16:57.783Z,293.73
2022-08-29T06:19:24.713Z,222.60
2022-08-29T06:21:54.593Z,159.35
2022-08-29T06:24:21.500Z,145.23
2022-08-29T06:26:48.357Z,129.13
2022-08-29T06:29:15.991Z,119.80
2022-08-29T06:31:42.782Z,142.45
2022-08-29T06:34:09.736Z,139.50
2022-08-29T06:36:36.779Z,123.63
2022-08-29T06:39:07.714Z,134.35
2022-08-29T06:41:35.993Z,135.90
2022-08-29T06:44:07.148Z,135.93
2022-08-29T06:46:37.346Z,119.38
2022-08-29T06:49:07.574Z,131.45
2022-08-29T06:51:37.324Z,143.63
2022-08-29T06:54:07.192Z,123.63
2022-08-29T06:56:37.137Z,163.60
2022-08-29T06:59:05.607Z,132.18
2022-08-29T07:01:33.561Z,168.53
2022-08-29T07:04:01.833Z,144.82
2022-08-29T07:06:29.473Z,143.17
2022-08-29T07:08:57.631Z,170.33
2022-08-29T07:11:26.436Z,154.88
2022-08-29T07:13:55.578Z,144.10
2022-08-29T07:16:23.098Z,150.15
2022-08-29T07:18:50.192Z,158.90
2022-08-29T07:21:20.935Z,166.55
2022-08-29T07:23:49.343Z,138.23
2022-08-29T07:26:22.579Z,155.35
2022-08-29T07:28:56.183Z,163.05
2022-08-29T07:31:23.249Z,145.43
2022-08-29T07:33:54.410Z,156.25
2022-08-29T07:36:28.963Z,139.30
2022-08-29T07:38:55.747Z,170.10
2022-08-29T07:41:24.071Z,148.45
2022-08-29T07:43:51.063Z,143.80
2022-08-29T07:46:20.216Z,148.15
2022-08-29T07:48:48.046Z,141.93
2022-08-29T07:51:17.346Z,146.77
2022-08-29T07:53:44.907Z,130.20
2022-08-29T07:56:15.931Z,136.93
2022-08-29T07:58:43.261Z,141.05
2022-08-29T08:01:21.131Z,160.48
2022-08-29T08:03:49.947Z,158.52
2022-08-29T08:06:19.298Z,154.82
2022-08-29T08:08:46.226Z,143.53
2022-08-29T08:11:13.592Z,124.03
2022-08-29T08:13:40.598Z,145.70
2022-08-29T08:16:11.233Z,150.45
2022-08-29T08:18:38.971Z,158.25
2022-08-29T08:21:06.050Z,140.95
2022-08-29T08:23:33.306Z,124.88
2022-08-29T08:26:01.722Z,131.77
2022-08-29T08:28:30.436Z,159.48
2022-08-29T08:31:05.099Z,134.82
2022-08-29T08:33:34.956Z,156.13
2022-08-29T08:36:03.117Z,149.23
2022-08-29T08:38:31.298Z,144.55
2022-08-29T08:41:10.620Z,147.07
2022-08-29T08:43:50.132Z,140.23
2022-08-29T08:46:19.463Z,160.10
2022-08-29T08:48:48.471Z,140.50
2022-08-29T08:51:23.482Z,125.00
2022-08-29T08:53:56.529Z,130.93
2022-08-29T08:56:30.824Z,139.32
2022-08-29T08:59:22.174Z,137.23
2022-08-29T09:02:22.871Z,143.18
2022-08-29T09:04:56.231Z,195.27
2022-08-29T09:07:40.108Z,196.65
2022-08-29T09:10:32.174Z,199.60
2022-08-29T09:13:06.363Z,202.30
2022-08-29T09:15:45.626Z,207.10
2022-08-29T09:18:28.939Z,237.55
2022-08-29T09:20:57.022Z,276.60
2022-08-29T09:23:44.395Z,295.52
2022-08-29T09:26:17.114Z,346.07
2022-08-29T09:28:44.256Z,299.65
2022-08-29T09:31:27.905Z,304.50
2022-08-29T09:33:58.062Z,263.70
2022-08-29T09:36:50.606Z,284.37
2022-08-29T09:39:31.934Z,236.57
2022-08-29T09:42:17.377Z,233.73
2022-08-29T09:44:54.325Z,207.63
2022-08-29T09:47:25.590Z,234.63
2022-08-29T09:50:20.214Z,193.02
2022-08-29T09:52:58.635Z,219.90
2022-08-29T09:55:37.415Z,241.10
2022-08-29T09:58:06.252Z,221.65
2022-08-29T10:00:38.879Z,281.27
2022-08-29T10:03:10.082Z,246.93
2022-08-29T10:05:44.401Z,261.88
2022-08-29T10:08:31.688Z,248.07
2022-08-29T10:11:03.314Z,250.45
2022-08-29T10:13:46.027Z,239.15
2022-08-29T10:16:13.287Z,233.48
2022-08-29T10:19:02.172Z,269.50
2022-08-29T10:21:54.940Z,286.98
2022-08-29T10:24:28.314Z,255.43
2022-08-29T10:27:01.074Z,208.85
2022-08-29T10:30:03.817Z,230.90
2022-08-29T10:32:30.592Z,254.02
2022-08-29T10:35:20.277Z,241.15
2022-08-29T10:38:29.275Z,281.83
2022-08-29T10:41:15.187Z,229.88
2022-08-29T10:44:18.519Z,266.80
2022-08-29T10:46:57.944Z,264.75
2022-08-29T10:49:45.042Z,273.48
2022-08-29T10:52:39.553Z,293.95
2022-08-29T10:55:18.958Z,317.50
2022-08-29T10:58:07.097Z,306.35
2022-08-29T11:00:59.927Z,277.50
2022-08-29T11:04:05.002Z,262.13
2022-08-29T11:09:36.366Z,247.38
2022-08-29T11:12:24.974Z,255.67
2022-08-29T11:14:58.654Z,238.67
2022-08-29T11:17:31.835Z,241.83
2022-08-29T11:20:17.421Z,259.08
2022-08-29T11:22:56.245Z,266.60
2022-08-29T11:25:23.174Z,271.00
2022-08-29T11:28:29.092Z,234.48
2022-08-29T11:31:35.102Z,243.07
2022-08-29T11:34:17.482Z,222.88
2022-08-29T11:37:15.365Z,207.40
2022-08-29T11:40:17.447Z,249.30
2022-08-29T11:42:50.736Z,258.10
2022-08-29T11:45:40.482Z,277.85
2022-08-29T11:48:10.392Z,278.40
2022-08-29T11:50:38.788Z,279.35
2022-08-29T11:53:16.883Z,268.17
2022-08-29T11:56:04.838Z,252.37
2022-08-29T11:58:32.755Z,284.37
2022-08-29T12:01:00.079Z,298.15
2022-08-29T12:03:34.941Z,277.40
2022-08-29T12:06:22.492Z,261.63
2022-08-29T12:09:04.810Z,249.77
2022-08-29T12:12:06.102Z,260.83
2022-08-29T12:14:37.965Z,258.58
2022-08-29T12:17:51.427Z,265.00
2022-08-29T12:20:41.153Z,283.85
2022-08-29T12:23:11.019Z,248.52
2022-08-29T12:26:21.426Z,284.13
2022-08-29T12:28:58.628Z,272.70
2022-08-29T12:31:56.896Z,297.63
2022-08-29T12:34:53.810Z,263.38
2022-08-29T12:37:43.344Z,229.77
2022-08-29T12:40:21.157Z,278.52
2022-08-29T12:43:14.507Z,253.65
2022-08-29T12:45:44.792Z,211.30
2022-08-29T12:48:18.245Z,204.32
2022-08-29T12:50:48.089Z,223.95
2022-08-29T12:53:25.547Z,249.68
2022-08-29T12:55:59.087Z,251.02
2022-08-29T12:58:36.451Z,234.73
2022-08-29T13:01:07.129Z,242.88
2022-08-29T13:03:33.973Z,212.68
2022-08-29T13:06:13.246Z,214.13
2022-08-29T13:08:41.188Z,201.20
2022-08-29T13:11:11.531Z,154.45
2022-08-29T13:13:39.001Z,197.98
2022-08-29T13:16:08.770Z,214.47
2022-08-29T13:18:53.625Z,235.95
2022-08-29T13:21:23.514Z,243.57
2022-08-29T13:24:16.484Z,229.07
2022-08-29T13:27:03.197Z,179.10
2022-08-29T13:32:23.569Z,108.75
2022-08-29T13:35:19.399Z,119.00
2022-08-29T13:38:16.372Z,105.87
2022-08-29T13:40:47.347Z,137.00
2022-08-29T13:43:30.866Z,152.77
2022-08-29T13:46:03.877Z,190.63
2022-08-29T13:48:31.064Z,181.95
2022-08-29T13:50:58.031Z,189.30
2022-08-29T13:53:24.984Z,184.10
2022-08-29T13:55:51.899Z,194.15
2022-08-29T13:58:21.611Z,184.98
2022-08-29T14:00:50.040Z,214.15
2022-08-29T14:03:18.535Z,222.82
2022-08-29T14:05:45.501Z,239.60
2022-08-29T14:08:13.357Z,223.30
2022-08-29T14:10:40.519Z,221.40
2022-08-29T14:13:07.446Z,238.05
2022-08-29T14:15:34.374Z,232.02
2022-08-29T14:18:01.301Z,215.00
2022-08-29T14:20:28.746Z,216.32
2022-08-29T14:22:55.789Z,240.07
2022-08-29T14:25:22.766Z,271.60
2022-08-29T14:27:49.919Z,269.92
2022-08-29T14:30:20.953Z,238.93
2022-08-29T14:32:47.857Z,255.60
2022-08-29T14:35:26.084Z,198.20
2022-08-29T14:37:55.308Z,253.60
2022-08-29T14:40:23.393Z,211.65
2022-08-29T14:42:52.547Z,217.73
2022-08-29T14:45:19.699Z,226.02
2022-08-29T14:47:47.274Z,235.32
2022-08-29T14:50:16.047Z,261.75
2022-08-29T14:52:43.570Z,266.33
2022-08-29T14:55:12.237Z,213.65
2022-08-29T14:57:39.432Z,194.57
2022-08-29T15:00:11.744Z,184.75
2022-08-29T15:02:39.544Z,203.52
2022-08-29T15:05:07.144Z,207.00
2022-08-29T15:07:34.242Z,162.20
2022-08-29T15:10:01.281Z,175.60
2022-08-29T15:12:29.006Z,173.32
2022-08-29T15:14:56.974Z,153.23
2022-08-29T15:17:25.226Z,124.97
2022-08-29T15:22:41.626Z,185.75
2022-08-29T15:25:08.750Z,193.17
2022-08-29T15:27:35.534Z,186.05
2022-08-29T15:30:02.884Z,182.60
2022-08-29T15:32:30.004Z,167.13
2022-08-29T15:34:57.279Z,186.57
2022-08-29T15:37:24.031Z,187.15
2022-08-29T15:39:54.595Z,191.75
2022-08-29T15:42:28.406Z,169.70
2022-08-29T15:44:56.315Z,176.35
2022-08-29T15:47:26.150Z,145.83
2022-08-29T15:49:54.059Z,175.98
2022-08-29T15:52:20.991Z,184.82
2022-08-29T15:54:47.964Z,165.60
2022-08-29T15:57:15.105Z,150.32
2022-08-29T15:59:57.626Z,188.30
2022-08-29T16:02:25.334Z,179.43
2022-08-29T16:04:56.803Z,203.73
2022-08-29T16:07:28.747Z,155.43
2022-08-29T16:09:55.959Z,170.40
2022-08-29T16:12:22.918Z,154.13
2022-08-29T16:15:09.092Z,156.10
2022-08-29T16:17:38.890Z,151.10
2022-08-29T16:20:11.614Z,175.35
2022-08-29T16:22:40.631Z,166.68
2022-08-29T16:25:09.221Z,168.23
2022-08-29T16:27:36.022Z,139.10
2022-08-29T16:30:03.683Z,158.57
2022-08-29T16:32:30.542Z,162.85
2022-08-29T16:34:58.610Z,159.63
2022-08-29T16:37:25.403Z,155.82
2022-08-29T16:39:52.219Z,182.15
2022-08-29T16:42:19.084Z,145.88
2022-08-29T16:44:46.034Z,142.30
2022-08-29T16:47:12.884Z,168.65
2022-08-29T16:49:40.831Z,174.77
2022-08-29T16:52:07.695Z,165.47
2022-08-29T16:54:34.515Z,177.50
2022-08-29T16:57:01.383Z,174.80
2022-08-29T16:59:28.307Z,173.52
2022-08-29T17:01:55.589Z,173.87
2022-08-29T17:04:27.608Z,182.82
2022-08-29T17:06:55.502Z,194.75
2022-08-29T17:09:24.036Z,189.68
2022-08-29T17:11:52.443Z,182.88
2022-08-29T17:14:21.496Z,177.88
2022-08-29T17:16:51.367Z,168.30
2022-08-29T17:19:19.898Z,186.68
2022-08-29T17:21:47.775Z,185.55
2022-08-29T17:24:15.234Z,205.40
2022-08-29T17:26:44.465Z,183.35
2022-08-29T17:29:12.264Z,203.52
2022-08-29T17:31:39.382Z,200.43
2022-08-29T17:34:07.838Z,232.13
2022-08-29T17:36:36.620Z,210.55
2022-08-29T17:39:05.409Z,197.13
2022-08-29T17:41:33.907Z,211.13
2022-08-29T17:44:02.124Z,231.40
2022-08-29T17:46:29.832Z,206.75
2022-08-29T17:48:57.214Z,206.77
2022-08-29T17:51:24.502Z,200.02
2022-08-29T17:53:52.004Z,179.07
2022-08-29T17:56:25.730Z,201.87
2022-08-29T17:58:52.798Z,187.77
2022-08-29T18:01:19.728Z,203.80
2022-08-29T18:03:46.943Z,205.55
2022-08-29T18:06:15.015Z,199.57
2022-08-29T18:08:44.214Z,220.03
2022-08-29T18:11:15.620Z,221.73
2022-08-29T18:13:42.710Z,208.25
2022-08-29T18:16:10.363Z,246.68
2022-08-29T18:18:39.582Z,261.17
2022-08-29T18:21:06.783Z,243.27
2022-08-29T18:23:33.675Z,235.00
2022-08-29T18:26:01.366Z,254.68
2022-08-29T18:28:28.599Z,272.08
2022-08-29T18:30:56.067Z,289.77
2022-08-29T18:33:23.220Z,273.23
2022-08-29T18:35:51.813Z,290.92
2022-08-29T18:38:19.098Z,283.50
2022-08-29T18:40:47.316Z,261.65
2022-08-29T18:43:18.251Z,253.02
2022-08-29T18:45:45.590Z,258.52
2022-08-29T18:48:12.935Z,257.85
2022-08-29T18:50:40.010Z,246.50
2022-08-29T18:53:19.966Z,252.27
2022-08-29T18:55:50.561Z,266.65
2022-08-29T18:58:21.838Z,282.80
2022-08-29T19:00:49.670Z,286.15
2022-08-29T19:03:17.444Z,268.42
2022-08-29T19:05:49.066Z,241.95
2022-08-29T19:08:17.371Z,261.38
2022-08-29T19:10:45.783Z,240.52
2022-08-29T19:13:13.462Z,242.18
2022-08-29T19:15:41.594Z,255.52
2022-08-29T19:18:10.433Z,260.53
2022-08-29T19:20:55.887Z,282.50
2022-08-29T19:23:23.863Z,274.23
2022-08-29T19:25:51.666Z,260.90
2022-08-29T19:28:19.758Z,244.80
2022-08-29T19:30:48.255Z,252.00
2022-08-29T19:33:18.206Z,251.55
2022-08-29T19:35:48.922Z,258.35
2022-08-29T19:38:16.339Z,240.97
2022-08-29T19:40:43.584Z,240.15
2022-08-29T19:43:13.652Z,240.30
2022-08-29T19:45:42.675Z,253.75
2022-08-29T19:48:10.695Z,234.32
2022-08-29T19:50:42.387Z,259.13
2022-08-29T19:53:09.991Z,248.40
2022-08-29T19:55:40.128Z,247.52
2022-08-29T19:58:07.308Z,265.83
2022-08-29T20:00:35.034Z,268.40
2022-08-29T20:03:01.894Z,264.93
2022-08-29T20:05:28.728Z,241.07
2022-08-29T20:07:56.014Z,236.55
2022-08-29T20:10:25.334Z,228.15
2022-08-29T20:12:54.156Z,248.30
2022-08-29T20:15:22.707Z,254.67
2022-08-29T20:17:59.872Z,218.73
2022-08-29T20:20:31.468Z,239.25
2022-08-29T20:22:58.351Z,211.45
2022-08-29T20:25:25.706Z,210.85
2022-08-29T20:27:53.153Z,208.60
2022-08-29T20:30:24.889Z,215.95
2022-08-29T20:32:53.207Z,216.30
2022-08-29T20:35:40.218Z,231.18
2022-08-29T20:38:08.154Z,239.48
2022-08-29T20:40:42.489Z,249.37
2022-08-29T20:43:09.528Z,228.82
2022-08-29T20:45:38.607Z,255.97
2022-08-29T20:48:05.624Z,226.00
2022-08-29T20:50:33.755Z,221.85
2022-08-29T20:53:00.991Z,220.98
2022-08-29T20:55:27.792Z,232.50
2022-08-29T20:57:54.756Z,241.57
2022-08-29T21:00:22.879Z,237.48
2022-08-29T21:03:09.207Z,253.40
2022-08-29T21:05:43.691Z,230.75
2022-08-29T21:08:17.454Z,223.05
2022-08-29T21:10:46.328Z,212.80
2022-08-29T21:13:14.406Z,214.00
2022-08-29T21:15:42.376Z,196.73
2022-08-29T21:18:11.047Z,207.80
2022-08-29T21:20:41.320Z,200.27
2022-08-29T21:23:22.317Z,204.90
2022-08-29T21:25:56.999Z,215.95
2022-08-29T21:28:25.248Z,197.93
2022-08-29T21:30:53.752Z,130.52
2022-08-29T21:33:23.227Z,210.18
2022-08-29T21:35:50.404Z,188.05
2022-08-29T21:38:17.825Z,187.13
2022-08-29T21:40:50.909Z,202.25
2022-08-29T21:43:19.807Z,196.32
2022-08-29T21:45:48.378Z,122.95
2022-08-29T21:48:15.260Z,129.07
2022-08-29T21:50:43.073Z,154.52
2022-08-29T21:53:14.573Z,199.88
2022-08-29T21:55:41.752Z,198.00
2022-08-29T21:58:08.530Z,206.10
2022-08-29T22:00:36.657Z,209.27
2022-08-29T22:03:06.832Z,223.50
2022-08-29T22:05:34.598Z,222.60
2022-08-29T22:08:04.138Z,214.20
2022-08-29T22:10:34.953Z,213.60
2022-08-29T22:13:04.566Z,228.48
2022-08-29T22:15:50.134Z,235.77
2022-08-29T22:18:17.988Z,225.98
2022-08-29T22:20:47.071Z,175.57
2022-08-29T22:23:17.514Z,229.15
2022-08-29T22:25:47.176Z,214.75
2022-08-29T22:28:14.422Z,210.95
2022-08-29T22:30:41.375Z,225.80
2022-08-29T22:33:08.739Z,225.50
2022-08-29T22:35:41.779Z,230.13
2022-08-29T22:38:08.501Z,229.88
2022-08-29T22:40:35.353Z,205.35
2022-08-29T22:43:02.211Z,225.45
2022-08-29T22:45:29.056Z,225.77
2022-08-29T22:47:56.015Z,214.02
2022-08-29T22:50:24.879Z,211.73
2022-08-29T22:52:56.488Z,203.57
2022-08-29T22:57:51.364Z,132.03
2022-08-29T23:00:22.083Z,134.70
2022-08-29T23:02:49.814Z,140.45
2022-08-29T23:05:17.438Z,147.43
2022-08-29T23:07:44.403Z,159.68
2022-08-29T23:10:12.032Z,215.97
2022-08-29T23:12:39.408Z,221.68
2022-08-29T23:15:09.863Z,221.73
2022-08-29T23:17:36.875Z,211.57
2022-08-29T23:20:07.379Z,211.73
2022-08-29T23:22:35.872Z,218.75
2022-08-29T23:25:03.092Z,222.20
2022-08-29T23:27:31.868Z,207.27
2022-08-29T23:30:01.007Z,205.52
2022-08-29T23:32:28.615Z,207.10
2022-08-29T23:34:55.965Z,231.07
2022-08-29T23:37:23.499Z,229.53
2022-08-29T23:39:50.806Z,221.10
2022-08-29T23:42:17.783Z,228.82
2022-08-29T23:44:45.663Z,231.10
2022-08-29T23:47:16.067Z,215.70
2022-08-29T23:49:42.795Z,225.20
2022-08-29T23:52:09.565Z,202.95
2022-08-29T23:54:36.758Z,210.23
2022-08-29T23:57:04.459Z,220.68
2022-08-29T23:59:51.763Z,207.48
